createdAt,value
2022-09-24T00:02:41.843Z,13.76
2022-09-24T00:07:45.899Z,13.68
2022-09-24T00:12:49.006Z,13.69
2022-09-24T00:17:51.684Z,13.66
2022-09-24T00:22:55.762Z,13.66
2022-09-24T00:27:58.466Z,13.69
2022-09-24T00:33:01.142Z,13.66
2022-09-24T00:38:06.201Z,13.61
2022-09-24T00:43:29.890Z,13.47
2022-09-24T00:48:34.143Z,13.33
2022-09-24T00:53:38.319Z,13.35
2022-09-24T00:58:41.064Z,13.50
2022-09-24T01:03:43.886Z,13.58
2022-09-24T01:08:48.311Z,13.63
2022-09-24T01:14:05.305Z,13.65
2022-09-24T01:19:20.774Z,13.52
2022-09-24T01:24:52.040Z,13.39
2022-09-24T01:30:05.104Z,13.46
2022-09-24T01:35:16.017Z,13.41
2022-09-24T01:40:21.876Z,13.39
2022-09-24T01:45:30.019Z,13.36
2022-09-24T01:50:36.525Z,13.30
2022-09-24T01:55:47.539Z,13.34
2022-09-24T02:00:57.483Z,13.39
2022-09-24T02:06:04.556Z,13.32
2022-09-24T02:11:10.847Z,13.31
2022-09-24T02:16:20.136Z,13.24
2022-09-24T02:21:24.816Z,13.26
2022-09-24T02:26:27.568Z,13.30
2022-09-24T02:31:34.062Z,13.31
2022-09-24T02:36:37.591Z,13.36
2022-09-24T02:41:42.229Z,13.38
2022-09-24T02:46:47.013Z,13.32
2022-09-24T02:51:49.788Z,13.33
2022-09-24T02:56:53.191Z,13.34
2022-09-24T03:01:57.362Z,13.32
2022-09-24T03:07:00.259Z,13.32
2022-09-24T03:12:03.304Z,13.39
2022-09-24T03:17:07.351Z,13.40
2022-09-24T03:22:10.139Z,13.45
2022-09-24T03:27:13.384Z,13.47
2022-09-24T03:32:17.466Z,13.41
2022-09-24T03:37:20.159Z,13.41
2022-09-24T03:42:22.836Z,13.40
2022-09-24T03:47:26.878Z,13.32
2022-09-24T03:52:29.890Z,13.31
2022-09-24T03:57:32.593Z,13.33
2022-09-24T04:02:36.814Z,13.34
2022-09-24T04:07:39.822Z,13.39
2022-09-24T04:12:43.854Z,13.44
2022-09-24T04:17:52.067Z,13.42
2022-09-24T04:22:56.656Z,13.39
2022-09-24T04:28:01.858Z,13.36
2022-09-24T04:33:06.243Z,13.38
2022-09-24T04:38:08.937Z,13.32
2022-09-24T04:43:11.683Z,13.34
2022-09-24T04:48:15.944Z,13.34
2022-09-24T04:53:18.724Z,13.33
2022-09-24T04:58:21.445Z,13.30
2022-09-24T05:03:25.579Z,13.30
2022-09-24T05:08:28.269Z,13.28
2022-09-24T05:13:30.983Z,13.28
2022-09-24T05:18:36.193Z,13.27
2022-09-24T05:23:38.862Z,13.26
2022-09-24T05:28:42.841Z,13.22
2022-09-24T05:33:47.212Z,13.17
2022-09-24T05:38:49.938Z,13.16
2022-09-24T05:43:52.706Z,13.18
2022-09-24T05:48:57.060Z,13.18
2022-09-24T05:53:59.743Z,13.18
2022-09-24T05:59:02.592Z,13.18
2022-09-24T06:04:09.090Z,13.05
2022-09-24T06:09:12.169Z,13.02
2022-09-24T06:14:15.031Z,12.98
2022-09-24T06:19:19.070Z,12.96
2022-09-24T06:24:22.407Z,13.00
2022-09-24T06:29:25.128Z,13.02
2022-09-24T06:34:29.336Z,13.04
2022-09-24T06:39:32.028Z,13.08
2022-09-24T06:44:34.831Z,13.10
2022-09-24T06:49:38.877Z,13.11
2022-09-24T06:54:41.592Z,13.08
2022-09-24T06:59:44.749Z,13.16
2022-09-24T07:04:48.791Z,13.17
2022-09-24T07:09:51.493Z,13.21
2022-09-24T07:14:54.186Z,13.30
2022-09-24T07:19:58.310Z,13.37
2022-09-24T07:25:01.019Z,13.36
2022-09-24T07:30:05.367Z,13.40
2022-09-24T07:35:10.057Z,13.44
2022-09-24T07:40:12.831Z,13.49
2022-09-24T07:45:17.172Z,13.58
2022-09-24T07:50:22.181Z,13.65
2022-09-24T07:55:25.723Z,13.55
2022-09-24T08:00:28.450Z,13.75
2022-09-24T08:05:32.953Z,13.90
2022-09-24T08:10:35.647Z,14.03
2022-09-24T08:15:38.400Z,14.14
2022-09-24T08:20:42.498Z,14.31
2022-09-24T08:25:45.259Z,14.53
2022-09-24T08:30:48.296Z,14.77
2022-09-24T08:35:52.407Z,14.88
2022-09-24T08:41:03.347Z,14.92
2022-09-24T08:46:32.692Z,15.02
2022-09-24T08:51:51.173Z,15.26
2022-09-24T08:56:56.614Z,15.41
2022-09-24T09:02:16.183Z,15.40
2022-09-24T09:07:24.400Z,15.68
2022-09-24T09:12:32.151Z,15.94
2022-09-24T09:17:45.274Z,16.02
2022-09-24T09:22:53.364Z,16.27
2022-09-24T09:28:01.409Z,16.37
2022-09-24T09:33:17.583Z,16.60
2022-09-24T09:38:30.542Z,16.84
2022-09-24T09:43:33.712Z,17.11
2022-09-24T09:48:45.444Z,17.23
2022-09-24T09:53:59.982Z,17.25
2022-09-24T09:59:07.135Z,17.24
2022-09-24T10:04:28.563Z,17.29
2022-09-24T10:09:32.726Z,17.53
2022-09-24T10:14:36.234Z,17.82
2022-09-24T10:19:41.674Z,17.71
2022-09-24T10:24:45.919Z,17.78
2022-09-24T10:30:06.299Z,18.06
2022-09-24T10:35:22.708Z,17.87
2022-09-24T10:40:30.964Z,17.78
2022-09-24T10:46:04.820Z,17.69
2022-09-24T10:51:21.508Z,17.53
2022-09-24T10:56:35.919Z,17.38
2022-09-24T11:01:47.661Z,17.62
2022-09-24T11:07:18.322Z,17.89
2022-09-24T11:12:33.559Z,18.08
2022-09-24T11:17:39.475Z,18.05
2022-09-24T11:22:55.203Z,17.99
2022-09-24T11:28:11.433Z,18.04
2022-09-24T11:33:29.103Z,17.83
2022-09-24T11:38:46.646Z,17.61
2022-09-24T11:44:16.808Z,17.62
2022-09-24T11:49:40.858Z,17.66
2022-09-24T11:54:50.081Z,17.97
2022-09-24T12:00:01.121Z,18.21
2022-09-24T12:05:09.273Z,18.51
2022-09-24T12:10:26.034Z,18.62
2022-09-24T12:15:34.466Z,18.61
2022-09-24T12:20:45.594Z,18.58
2022-09-24T12:25:51.441Z,18.47
2022-09-24T12:31:18.411Z,18.15
2022-09-24T12:36:28.954Z,17.94
2022-09-24T12:41:33.771Z,18.04
2022-09-24T12:46:42.872Z,18.24
2022-09-24T12:51:45.991Z,18.24
2022-09-24T12:56:48.973Z,18.04
2022-09-24T13:01:53.089Z,18.16
2022-09-24T13:06:56.138Z,18.45
2022-09-24T13:12:04.145Z,18.69
2022-09-24T13:17:08.416Z,19.10
2022-09-24T13:22:22.902Z,19.32
2022-09-24T13:27:37.906Z,19.48
2022-09-24T13:32:47.822Z,19.92
2022-09-24T13:37:55.747Z,20.51
2022-09-24T13:43:05.296Z,20.97
2022-09-24T13:48:19.552Z,21.10
2022-09-24T13:53:29.507Z,20.83
2022-09-24T13:58:34.010Z,20.72
2022-09-24T14:03:39.730Z,20.75
2022-09-24T14:08:44.476Z,20.75
2022-09-24T14:13:47.308Z,20.66
2022-09-24T14:19:02.494Z,20.58
2022-09-24T14:24:09.482Z,20.84
2022-09-24T14:29:16.818Z,20.80
2022-09-24T14:34:29.334Z,20.82
2022-09-24T14:39:32.078Z,20.41
2022-09-24T14:44:34.891Z,20.22
2022-09-24T14:49:46.350Z,19.92
2022-09-24T14:54:49.129Z,20.07
2022-09-24T14:59:52.288Z,20.36
2022-09-24T15:05:05.620Z,20.47
2022-09-24T15:10:21.757Z,20.36
2022-09-24T15:15:30.534Z,20.40
2022-09-24T15:20:34.750Z,20.36
2022-09-24T15:25:37.557Z,20.35
2022-09-24T15:30:41.368Z,20.08
2022-09-24T15:35:46.149Z,20.10
2022-09-24T15:40:51.475Z,20.12
2022-09-24T15:45:54.371Z,20.14
2022-09-24T15:50:58.717Z,19.98
2022-09-24T15:56:02.848Z,19.71
2022-09-24T16:01:05.750Z,19.67
2022-09-24T16:06:13.023Z,19.59
2022-09-24T16:11:16.487Z,19.53
2022-09-24T16:16:19.274Z,19.81
2022-09-24T16:21:23.462Z,20.72
2022-09-24T16:26:26.196Z,20.73
2022-09-24T16:31:28.947Z,20.23
2022-09-24T16:36:33.004Z,19.67
2022-09-24T16:41:37.785Z,19.16
2022-09-24T16:46:40.569Z,18.70
